createdAt,value
2023-02-03T00:00:12.196Z,4.66
2023-02-03T00:02:39.245Z,4.72
2023-02-03T00:05:06.308Z,4.71
2023-02-03T00:07:32.831Z,4.61
2023-02-03T00:09:59.329Z,4.51
2023-02-03T00:12:25.964Z,4.47
2023-02-03T00:14:52.452Z,4.39
2023-02-03T00:17:18.989Z,4.35
2023-02-03T00:19:45.559Z,4.34
2023-02-03T00:22:12.244Z,4.29
2023-02-03T00:24:39.240Z,4.29
2023-02-03T00:27:06.179Z,4.36
2023-02-03T00:29:32.922Z,4.36
2023-02-03T00:31:59.526Z,4.31
2023-02-03T00:34:30.327Z,4.14
2023-02-03T00:36:57.812Z,4.08
2023-02-03T00:39:24.382Z,4.04
2023-02-03T00:41:50.845Z,4.02
2023-02-03T00:44:17.365Z,4.03
2023-02-03T00:46:43.848Z,4.13
2023-02-03T00:49:10.539Z,4.20
2023-02-03T00:51:37.046Z,3.99
2023-02-03T00:54:03.575Z,3.92
2023-02-03T00:56:30.199Z,3.88
2023-02-03T00:58:56.768Z,3.75
2023-02-03T01:01:23.389Z,3.71
2023-02-03T01:03:50.144Z,3.77
2023-02-03T01:06:19.954Z,3.83
2023-02-03T01:08:46.810Z,3.82
2023-02-03T01:11:17.266Z,3.80
2023-02-03T01:13:44.183Z,3.81
2023-02-03T01:16:13.122Z,3.83
2023-02-03T01:18:40.846Z,3.88
2023-02-03T01:21:07.414Z,3.75
2023-02-03T01:23:35.088Z,3.70
2023-02-03T01:26:21.968Z,3.71
2023-02-03T01:28:53.946Z,3.74
2023-02-03T01:31:27.106Z,3.59
2023-02-03T01:33:54.721Z,3.53
2023-02-03T01:36:23.407Z,3.51
2023-02-03T01:38:50.227Z,3.42
2023-02-03T01:41:20.461Z,3.36
2023-02-03T01:43:52.448Z,3.35
2023-02-03T01:46:18.895Z,3.33
2023-02-03T01:48:45.508Z,3.23
2023-02-03T01:51:11.999Z,3.23
2023-02-03T01:53:39.284Z,3.25
2023-02-03T01:56:06.742Z,3.22
2023-02-03T01:58:38.527Z,3.23
2023-02-03T02:01:05.391Z,3.19
2023-02-03T02:03:37.922Z,3.23
2023-02-03T02:06:10.337Z,3.18
2023-02-03T02:08:38.723Z,3.29
2023-02-03T02:11:07.092Z,3.19
2023-02-03T02:13:35.122Z,3.12
2023-02-03T02:16:16.874Z,3.11
2023-02-03T02:19:09.234Z,3.20
2023-02-03T02:22:02.792Z,3.28
2023-02-03T02:24:32.339Z,3.20
2023-02-03T02:27:35.877Z,3.36
2023-02-03T02:30:05.326Z,3.34
2023-02-03T02:32:45.177Z,3.25
2023-02-03T02:35:20.001Z,3.12
2023-02-03T02:38:07.510Z,3.05
2023-02-03T02:41:10.782Z,2.89
2023-02-03T02:43:40.182Z,2.96
2023-02-03T02:46:16.162Z,2.91
2023-02-03T02:48:58.162Z,2.84
2023-02-03T02:51:24.991Z,2.86
2023-02-03T02:54:02.573Z,2.80
2023-02-03T02:56:31.696Z,2.76
2023-02-03T02:59:01.648Z,2.78
2023-02-03T03:01:28.174Z,2.75
2023-02-03T03:03:56.227Z,2.73
2023-02-03T03:06:38.055Z,2.74
2023-02-03T03:09:25.561Z,2.72
2023-02-03T03:12:00.544Z,2.75
2023-02-03T03:14:30.553Z,2.79
2023-02-03T03:17:03.022Z,2.76
2023-02-03T03:19:41.607Z,2.77
2023-02-03T03:22:13.439Z,2.74
2023-02-03T03:24:46.076Z,2.80
2023-02-03T03:27:20.734Z,2.76
2023-02-03T03:30:00.280Z,2.84
2023-02-03T03:32:28.191Z,2.98
2023-02-03T03:34:55.574Z,2.78
2023-02-03T03:37:35.754Z,2.66
2023-02-03T03:40:20.494Z,2.56
2023-02-03T03:42:55.822Z,2.48
2023-02-03T03:45:32.256Z,2.68
2023-02-03T03:48:19.647Z,2.56
2023-02-03T03:50:51.534Z,2.37
2023-02-03T03:53:20.090Z,2.28
2023-02-03T03:55:52.623Z,2.24
2023-02-03T03:58:30.939Z,2.20
2023-02-03T04:01:04.027Z,2.15
2023-02-03T04:03:35.461Z,2.16
2023-02-03T04:06:02.165Z,2.34
2023-02-03T04:08:28.694Z,2.44
2023-02-03T04:10:55.185Z,2.49
2023-02-03T04:13:22.149Z,2.47
2023-02-03T04:15:48.705Z,2.33
2023-02-03T04:18:16.612Z,2.26
2023-02-03T04:20:43.201Z,2.34
2023-02-03T04:23:10.475Z,2.43
2023-02-03T04:25:36.976Z,2.47
2023-02-03T04:28:03.888Z,2.47
2023-02-03T04:30:30.501Z,2.45
2023-02-03T04:32:57.232Z,2.39
2023-02-03T04:35:23.953Z,2.26
2023-02-03T04:37:50.571Z,2.15
2023-02-03T04:40:17.490Z,2.12
2023-02-03T04:42:44.045Z,2.18
2023-02-03T04:45:11.696Z,2.20
2023-02-03T04:47:39.478Z,2.18
2023-02-03T04:50:06.486Z,2.27
2023-02-03T04:52:33.253Z,2.27
2023-02-03T04:54:59.836Z,2.33
2023-02-03T04:57:26.356Z,2.26
2023-02-03T04:59:53.157Z,2.32
2023-02-03T05:02:19.963Z,2.35
2023-02-03T05:04:46.472Z,2.25
2023-02-03T05:07:13.005Z,2.25
2023-02-03T05:09:39.497Z,2.23
2023-02-03T05:12:06.275Z,2.28
2023-02-03T05:14:32.796Z,2.23
2023-02-03T05:16:59.283Z,2.30
2023-02-03T05:19:26.091Z,2.24
2023-02-03T05:21:52.713Z,2.35
2023-02-03T05:24:19.215Z,2.38
2023-02-03T05:26:45.708Z,2.43
2023-02-03T05:29:12.198Z,2.29
2023-02-03T05:31:38.776Z,2.21
2023-02-03T05:34:05.336Z,2.28
2023-02-03T05:36:31.896Z,2.16
2023-02-03T05:38:58.977Z,2.03
2023-02-03T05:41:44.001Z,2.06
2023-02-03T05:44:10.466Z,1.94
2023-02-03T05:46:36.910Z,1.90
2023-02-03T05:49:03.505Z,1.87
2023-02-03T05:51:30.153Z,1.91
2023-02-03T05:53:57.363Z,2.02
2023-02-03T05:56:23.908Z,1.97
2023-02-03T05:58:53.271Z,1.82
2023-02-03T06:01:20.074Z,1.84
2023-02-03T06:03:47.358Z,1.90
2023-02-03T06:06:14.564Z,1.82
2023-02-03T06:08:41.227Z,1.84
2023-02-03T06:11:07.786Z,1.85
2023-02-03T06:13:34.531Z,1.91
2023-02-03T06:16:01.117Z,1.89
2023-02-03T06:18:27.851Z,1.91
2023-02-03T06:20:54.369Z,1.89
2023-02-03T06:23:21.011Z,1.79
2023-02-03T06:25:51.674Z,1.73
2023-02-03T06:28:18.747Z,1.74
2023-02-03T06:30:45.445Z,1.74
2023-02-03T06:33:12.132Z,1.58
2023-02-03T06:35:38.672Z,1.54
2023-02-03T06:38:05.346Z,1.59
2023-02-03T06:40:31.881Z,1.68
2023-02-03T06:42:58.634Z,1.78
2023-02-03T06:45:25.854Z,1.82
2023-02-03T06:47:52.408Z,1.77
2023-02-03T06:50:19.139Z,1.77
2023-02-03T06:52:45.704Z,1.86
2023-02-03T06:55:12.473Z,1.79
2023-02-03T06:57:47.026Z,1.73
2023-02-03T07:00:18.628Z,1.61
2023-02-03T07:02:46.531Z,1.68
2023-02-03T07:05:13.207Z,1.65
2023-02-03T07:07:39.777Z,1.65
2023-02-03T07:10:06.800Z,1.72
2023-02-03T07:12:33.371Z,1.68
2023-02-03T07:15:00.498Z,1.75
2023-02-03T07:17:26.995Z,1.62
2023-02-03T07:19:53.533Z,1.59
2023-02-03T07:22:20.255Z,1.81
2023-02-03T07:24:46.853Z,1.99
2023-02-03T07:27:13.358Z,1.87
2023-02-03T07:29:39.874Z,1.80
2023-02-03T07:32:06.532Z,1.78
2023-02-03T07:34:33.530Z,1.88
2023-02-03T07:37:00.003Z,1.75
2023-02-03T07:39:26.580Z,1.58
2023-02-03T07:41:53.218Z,1.63
2023-02-03T07:44:19.690Z,1.71
2023-02-03T07:46:46.255Z,1.63
2023-02-03T07:49:13.335Z,1.60
2023-02-03T07:51:40.221Z,1.73
2023-02-03T07:54:06.963Z,1.76
2023-02-03T07:56:33.911Z,1.74
2023-02-03T07:59:00.777Z,1.75
2023-02-03T08:01:27.827Z,1.76
2023-02-03T08:03:55.265Z,1.72
2023-02-03T08:06:22.160Z,1.83
2023-02-03T08:08:48.722Z,1.75
2023-02-03T08:11:15.222Z,1.85
2023-02-03T08:13:41.845Z,1.55
2023-02-03T08:16:08.639Z,1.41
2023-02-03T08:18:35.209Z,1.59
2023-02-03T08:21:03.845Z,1.81
2023-02-03T08:23:30.859Z,1.83
2023-02-03T08:25:57.381Z,1.71
2023-02-03T08:28:23.961Z,1.61
2023-02-03T08:30:51.001Z,1.71
2023-02-03T08:33:17.603Z,1.73
2023-02-03T08:35:49.518Z,1.75
2023-02-03T08:38:16.572Z,1.98
2023-02-03T08:40:43.317Z,2.01
2023-02-03T08:43:09.989Z,2.10
2023-02-03T08:45:36.503Z,2.04
2023-02-03T08:48:03.084Z,2.13
2023-02-03T08:50:29.996Z,2.23
2023-02-03T08:52:56.696Z,2.21
2023-02-03T08:55:23.206Z,2.17
2023-02-03T08:57:49.672Z,2.20
2023-02-03T09:00:16.564Z,2.38
2023-02-03T09:02:43.137Z,2.42
2023-02-03T09:05:10.062Z,2.30
2023-02-03T09:07:37.086Z,2.38
2023-02-03T09:10:04.133Z,2.52
2023-02-03T09:12:30.607Z,2.68
2023-02-03T09:14:57.213Z,2.69
2023-02-03T09:17:23.774Z,2.59
2023-02-03T09:19:50.373Z,2.51
2023-02-03T09:22:16.940Z,2.54
2023-02-03T09:24:43.713Z,2.70
2023-02-03T09:27:10.283Z,2.76
2023-02-03T09:29:36.803Z,2.94
2023-02-03T09:32:07.874Z,2.99
2023-02-03T09:34:34.571Z,3.13
2023-02-03T09:37:01.139Z,3.10
2023-02-03T09:39:27.658Z,3.19
2023-02-03T09:42:08.519Z,3.23
2023-02-03T09:44:47.165Z,3.31
2023-02-03T09:47:28.323Z,3.43
2023-02-03T09:50:05.398Z,3.51
2023-02-03T09:52:39.746Z,3.65
2023-02-03T09:55:18.119Z,3.72
2023-02-03T09:57:51.505Z,3.69
2023-02-03T10:00:25.557Z,3.79
2023-02-03T10:02:59.841Z,3.87
2023-02-03T10:06:03.461Z,3.84
2023-02-03T10:09:07.674Z,3.98
2023-02-03T10:12:08.990Z,4.04
2023-02-03T10:15:23.575Z,4.06
2023-02-03T10:18:12.786Z,4.17
2023-02-03T10:20:50.817Z,4.18
2023-02-03T10:23:24.256Z,4.35
2023-02-03T10:25:59.061Z,4.35
2023-02-03T10:28:32.931Z,4.43
2023-02-03T10:31:01.754Z,4.52
2023-02-03T10:33:30.986Z,4.66
2023-02-03T10:36:22.130Z,4.67
2023-02-03T10:38:48.606Z,4.78
2023-02-03T10:41:17.853Z,4.76
2023-02-03T10:43:48.830Z,4.91
2023-02-03T10:46:17.384Z,4.92
2023-02-03T10:48:44.473Z,4.98
2023-02-03T10:51:36.443Z,5.07
2023-02-03T10:54:03.063Z,5.21
2023-02-03T10:56:37.120Z,5.16
2023-02-03T10:59:04.722Z,5.00
2023-02-03T11:01:31.250Z,5.19
2023-02-03T11:04:03.184Z,5.29
2023-02-03T11:06:31.515Z,5.30
2023-02-03T11:08:58.976Z,5.42
2023-02-03T11:11:25.557Z,5.50
2023-02-03T11:14:04.178Z,5.50
2023-02-03T11:16:33.238Z,5.53
2023-02-03T11:19:10.372Z,5.82
2023-02-03T11:21:42.875Z,5.90
2023-02-03T11:24:18.362Z,5.95
2023-02-03T11:26:58.714Z,6.08
2023-02-03T11:29:28.562Z,6.04
2023-02-03T11:31:57.704Z,6.15
2023-02-03T11:34:36.841Z,6.06
2023-02-03T11:37:28.204Z,6.23
2023-02-03T11:40:15.078Z,6.27
2023-02-03T11:42:58.756Z,6.34
2023-02-03T11:45:42.149Z,6.34
2023-02-03T11:48:14.751Z,6.38
2023-02-03T11:51:28.880Z,6.32
2023-02-03T11:54:13.678Z,6.50
2023-02-03T11:56:51.743Z,6.63
2023-02-03T11:59:39.697Z,6.57
2023-02-03T12:02:40.921Z,6.54
2023-02-03T12:05:45.758Z,6.68
2023-02-03T12:08:18.015Z,6.70
2023-02-03T12:11:06.248Z,6.67
2023-02-03T12:13:44.760Z,6.86
2023-02-03T12:16:21.088Z,6.87
2023-02-03T12:19:30.921Z,6.86
2023-02-03T12:22:37.784Z,6.82
2023-02-03T12:25:30.375Z,6.97
2023-02-03T12:27:59.766Z,7.13
2023-02-03T12:30:35.325Z,7.08
2023-02-03T12:33:11.886Z,7.10
2023-02-03T12:35:46.876Z,7.17
2023-02-03T12:38:17.061Z,7.21
2023-02-03T12:40:55.276Z,7.14
2023-02-03T12:43:38.558Z,7.32
2023-02-03T12:46:16.540Z,7.36
2023-02-03T12:49:10.746Z,7.41
2023-02-03T12:51:51.032Z,7.41
2023-02-03T12:54:53.676Z,7.64
2023-02-03T12:57:46.818Z,7.65
2023-02-03T13:00:27.209Z,7.67
2023-02-03T13:03:26.608Z,7.80
2023-02-03T13:06:15.190Z,7.92
2023-02-03T13:08:54.119Z,7.81
2023-02-03T13:11:48.967Z,7.81
2023-02-03T13:14:37.207Z,7.77
2023-02-03T13:17:27.787Z,7.98
2023-02-03T13:20:19.238Z,8.16
2023-02-03T13:22:46.149Z,8.03
2023-02-03T13:25:23.094Z,8.12
2023-02-03T13:28:19.842Z,8.15
2023-02-03T13:31:13.392Z,8.10
2023-02-03T13:33:54.707Z,8.22
2023-02-03T13:36:36.585Z,8.31
2023-02-03T13:39:21.829Z,8.30
2023-02-03T13:41:55.345Z,8.24
2023-02-03T13:44:28.340Z,8.39
2023-02-03T13:46:58.359Z,8.44
2023-02-03T13:49:34.024Z,8.35
2023-02-03T13:52:01.079Z,8.56
2023-02-03T13:54:37.706Z,8.63
2023-02-03T13:57:19.867Z,8.88
2023-02-03T13:59:48.443Z,8.78
2023-02-03T14:02:24.393Z,8.62
2023-02-03T14:04:56.271Z,8.91
2023-02-03T14:07:38.171Z,9.08
2023-02-03T14:10:13.804Z,8.95
2023-02-03T14:12:52.422Z,8.87
2023-02-03T14:15:30.265Z,9.05
2023-02-03T14:18:07.302Z,8.96
2023-02-03T14:20:48.977Z,9.25
2023-02-03T14:23:23.578Z,9.23
2023-02-03T14:25:56.051Z,9.28
2023-02-03T14:28:43.817Z,9.22
2023-02-03T14:31:25.131Z,9.27
2023-02-03T14:33:58.332Z,9.34
2023-02-03T14:36:30.807Z,9.31
2023-02-03T14:39:02.386Z,9.33
2023-02-03T14:41:45.444Z,9.49
2023-02-03T14:44:31.717Z,9.20
2023-02-03T14:47:30.872Z,9.29
2023-02-03T14:50:25.105Z,9.22
2023-02-03T14:53:16.000Z,9.34
2023-02-03T14:55:54.536Z,9.34
2023-02-03T14:58:36.787Z,9.30
2023-02-03T15:01:05.030Z,9.43
2023-02-03T15:03:31.650Z,9.49
2023-02-03T15:06:03.201Z,9.57
2023-02-03T15:08:48.989Z,9.73
2023-02-03T15:11:33.542Z,9.69
2023-02-03T15:14:27.519Z,9.78
2023-02-03T15:16:59.867Z,9.76
2023-02-03T15:19:35.720Z,9.78
2023-02-03T15:22:02.779Z,9.75
2023-02-03T15:24:36.772Z,9.77
2023-02-03T15:27:03.507Z,9.77
2023-02-03T15:29:32.464Z,9.79
2023-02-03T15:32:19.243Z,9.85
2023-02-03T15:34:49.130Z,9.83
2023-02-03T15:37:34.006Z,9.83
2023-02-03T15:40:05.291Z,9.77
2023-02-03T15:42:45.603Z,9.84
2023-02-03T15:45:25.448Z,9.67
2023-02-03T15:47:57.837Z,9.63
2023-02-03T15:50:34.157Z,9.64
2023-02-03T15:53:10.485Z,9.59
2023-02-03T15:55:43.150Z,9.55
2023-02-03T15:58:23.493Z,9.48
2023-02-03T16:00:54.060Z,9.47
2023-02-03T16:03:28.436Z,9.42
2023-02-03T16:05:55.336Z,9.36
2023-02-03T16:08:46.258Z,9.32
2023-02-03T16:11:31.070Z,9.32
2023-02-03T16:14:00.293Z,9.29
2023-02-03T16:16:29.691Z,9.26
2023-02-03T16:18:58.781Z,9.28
2023-02-03T16:21:52.934Z,9.20
2023-02-03T16:24:42.988Z,9.13
2023-02-03T16:27:44.351Z,9.13
2023-02-03T16:30:29.405Z,9.03
2023-02-03T16:33:43.598Z,8.95
2023-02-03T16:36:31.625Z,8.88
2023-02-03T16:39:20.482Z,8.90
2023-02-03T16:42:05.869Z,8.82
2023-02-03T16:44:51.091Z,8.73
2023-02-03T16:47:43.304Z,8.71
2023-02-03T16:50:46.127Z,8.61
2023-02-03T16:53:15.763Z,8.62
2023-02-03T16:55:43.930Z,8.57
2023-02-03T16:58:12.610Z,8.47
2023-02-03T17:00:44.071Z,8.46
2023-02-03T17:03:13.239Z,8.33
2023-02-03T17:05:42.030Z,8.25
2023-02-03T17:08:09.047Z,8.16
2023-02-03T17:10:38.100Z,8.05
2023-02-03T17:13:05.478Z,8.06
2023-02-03T17:15:32.559Z,8.09
2023-02-03T17:17:59.187Z,7.99
2023-02-03T17:20:26.027Z,7.99
2023-02-03T17:22:54.412Z,7.95
2023-02-03T17:25:21.706Z,7.80
2023-02-03T17:27:48.649Z,7.83
2023-02-03T17:30:15.806Z,7.71
2023-02-03T17:32:42.403Z,7.68
2023-02-03T17:35:08.997Z,7.65
2023-02-03T17:37:35.818Z,7.53
2023-02-03T17:54:06.208Z,7.41
2023-02-03T17:56:35.668Z,7.50
2023-02-03T17:59:04.522Z,7.43
2023-02-03T18:01:31.823Z,7.37
2023-02-03T18:04:01.318Z,7.35
2023-02-03T18:06:29.946Z,7.30
2023-02-03T18:09:01.395Z,7.29
2023-02-03T18:11:30.257Z,7.33
2023-02-03T18:13:56.876Z,7.40
2023-02-03T18:16:26.556Z,7.31
2023-02-03T18:18:53.962Z,7.25
2023-02-03T18:21:22.759Z,7.20
2023-02-03T18:23:51.157Z,7.15
2023-02-03T18:26:19.485Z,7.18
2023-02-03T18:28:46.049Z,7.10
2023-02-03T18:31:15.680Z,7.03
2023-02-03T18:33:43.655Z,7.07
2023-02-03T18:36:12.790Z,7.17
2023-02-03T18:38:41.920Z,7.09
2023-02-03T18:41:23.253Z,7.00
2023-02-03T18:43:50.140Z,7.06
2023-02-03T18:46:19.670Z,7.09
2023-02-03T18:48:46.635Z,7.04
2023-02-03T18:51:16.556Z,6.99
2023-02-03T18:53:45.034Z,7.04
2023-02-03T18:56:35.767Z,7.05
2023-02-03T18:59:08.751Z,7.08
2023-02-03T19:01:36.475Z,7.03
2023-02-03T19:04:03.689Z,6.96
2023-02-03T19:06:32.386Z,6.86
2023-02-03T19:09:00.608Z,6.86
2023-02-03T19:11:27.208Z,6.76
2023-02-03T19:13:53.862Z,6.68
2023-02-03T19:16:20.446Z,6.66
2023-02-03T19:18:47.326Z,6.65
2023-02-03T19:21:14.434Z,6.62
2023-02-03T19:23:42.144Z,6.63
2023-02-03T19:26:09.960Z,6.64
2023-02-03T19:28:36.936Z,6.60
2023-02-03T19:31:08.800Z,6.54
2023-02-03T19:33:36.390Z,6.52
2023-02-03T19:36:04.695Z,6.52
2023-02-03T19:38:31.408Z,6.48
2023-02-03T19:40:57.998Z,6.43
2023-02-03T19:43:24.798Z,6.35
2023-02-03T19:45:51.749Z,6.28
2023-02-03T19:48:19.139Z,6.24
2023-02-03T19:50:48.734Z,6.20
2023-02-03T19:53:16.797Z,6.18
2023-02-03T19:55:44.510Z,6.11
2023-02-03T19:58:12.479Z,6.07
2023-02-03T20:00:40.085Z,6.04
2023-02-03T20:03:06.915Z,6.00
2023-02-03T20:05:34.512Z,5.93
2023-02-03T20:08:01.199Z,5.98
2023-02-03T20:10:28.241Z,5.95
2023-02-03T20:12:55.220Z,5.84
2023-02-03T20:15:22.196Z,5.80
2023-02-03T20:17:48.767Z,5.73
2023-02-03T20:20:17.390Z,5.67
2023-02-03T20:22:45.191Z,5.62
2023-02-03T20:25:11.712Z,5.55
2023-02-03T20:27:38.277Z,5.61
2023-02-03T20:30:05.128Z,5.48
2023-02-03T20:32:31.598Z,5.54
2023-02-03T20:34:59.185Z,5.55
2023-02-03T20:37:25.905Z,5.45
2023-02-03T20:39:52.494Z,5.40
2023-02-03T20:42:19.060Z,5.44
2023-02-03T20:44:45.828Z,5.38
2023-02-03T20:47:14.636Z,5.39
2023-02-03T20:49:41.434Z,5.38
2023-02-03T20:52:19.789Z,5.36
2023-02-03T20:54:46.370Z,5.36
2023-02-03T20:57:18.251Z,5.36
2023-02-03T20:59:45.927Z,5.39
2023-02-03T21:02:31.242Z,5.36
2023-02-03T21:04:58.818Z,5.41
2023-02-03T21:07:29.185Z,5.44
2023-02-03T21:09:57.077Z,5.39
2023-02-03T21:12:24.471Z,5.39
2023-02-03T21:14:53.151Z,5.32
2023-02-03T21:17:22.393Z,5.28
2023-02-03T21:19:49.336Z,5.25
2023-02-03T21:22:19.949Z,5.25
2023-02-03T21:24:57.807Z,5.29
2023-02-03T21:27:28.730Z,5.30
2023-02-03T21:29:57.633Z,5.20
2023-02-03T21:32:36.436Z,5.13
2023-02-03T21:35:03.052Z,5.14
2023-02-03T21:37:41.295Z,5.20
2023-02-03T21:40:29.432Z,5.10
2023-02-03T21:42:56.687Z,5.11
2023-02-03T21:45:28.515Z,5.06
2023-02-03T21:47:57.870Z,5.08
2023-02-03T21:50:40.794Z,4.96
2023-02-03T21:53:10.498Z,4.90
2023-02-03T21:55:38.456Z,4.79
2023-02-03T21:58:31.398Z,4.86
2023-02-03T22:01:00.247Z,4.89
2023-02-03T22:03:31.168Z,4.88
2023-02-03T22:06:04.682Z,4.84
2023-02-03T22:08:34.684Z,4.82
2023-02-03T22:11:01.138Z,4.73
2023-02-03T22:13:29.489Z,4.74
2023-02-03T22:15:56.886Z,4.66
2023-02-03T22:18:23.744Z,4.67
2023-02-03T22:20:50.829Z,4.65
2023-02-03T22:23:17.469Z,4.66
2023-02-03T22:25:43.940Z,4.57
2023-02-03T22:28:10.468Z,4.58
2023-02-03T22:30:37.224Z,4.52
2023-02-03T22:33:03.912Z,4.45
2023-02-03T22:35:30.545Z,4.46
2023-02-03T22:37:57.701Z,4.48
2023-02-03T22:40:24.814Z,4.46
2023-02-03T22:42:51.965Z,4.43
2023-02-03T22:45:19.625Z,4.35
2023-02-03T22:47:46.923Z,4.41
2023-02-03T22:50:15.456Z,4.38
2023-02-03T22:52:43.108Z,4.44
2023-02-03T22:55:10.276Z,4.39
2023-02-03T22:57:38.135Z,4.30
2023-02-03T23:00:11.000Z,4.36
2023-02-03T23:02:40.964Z,4.28
2023-02-03T23:05:08.982Z,4.27
2023-02-03T23:07:37.108Z,4.18
2023-02-03T23:10:05.240Z,4.04
2023-02-03T23:12:31.817Z,4.09
2023-02-03T23:14:58.602Z,4.04
2023-02-03T23:17:25.279Z,4.09
2023-02-03T23:19:51.761Z,4.14
2023-02-03T23:22:19.004Z,4.18
2023-02-03T23:24:45.554Z,4.21
2023-02-03T23:27:12.103Z,4.17
2023-02-03T23:29:39.187Z,4.18
2023-02-03T23:32:06.687Z,4.13
2023-02-03T23:34:51.946Z,4.17
2023-02-03T23:37:19.167Z,4.25
2023-02-03T23:39:45.707Z,4.12
2023-02-03T23:42:12.201Z,4.11
2023-02-03T23:44:38.729Z,4.00
2023-02-03T23:47:05.336Z,3.99
2023-02-03T23:49:31.888Z,4.10
2023-02-03T23:51:58.907Z,3.92
2023-02-03T23:54:25.790Z,3.99
2023-02-03T23:56:52.795Z,3.97
2023-02-03T23:59:20.296Z,4.07
